createdAt,value
2022-08-28T00:02:00.952Z,23.38
2022-08-28T00:05:05.607Z,23.42
2022-08-28T00:08:13.554Z,23.58
2022-08-28T00:11:21.182Z,23.72
2022-08-28T00:14:25.204Z,23.64
2022-08-28T00:17:30.451Z,23.62
2022-08-28T00:20:36.840Z,23.55
2022-08-28T00:23:42.762Z,23.43
2022-08-28T00:27:07.902Z,23.35
2022-08-28T00:30:12.383Z,23.29
2022-08-28T00:33:17.716Z,23.20
2022-08-28T00:36:20.907Z,23.19
2022-08-28T00:39:26.192Z,23.08
2022-08-28T00:42:29.202Z,23.02
2022-08-28T00:45:39.576Z,23.02
2022-08-28T00:48:49.994Z,22.95
2022-08-28T00:52:08.155Z,22.89
2022-08-28T00:55:17.881Z,22.87
2022-08-28T00:58:20.649Z,22.83
2022-08-28T01:01:24.038Z,22.75
2022-08-28T01:04:29.658Z,22.70
2022-08-28T01:07:48.497Z,22.64
2022-08-28T01:10:55.564Z,22.57
2022-08-28T01:14:02.924Z,22.46
2022-08-28T01:17:08.575Z,22.44
2022-08-28T01:20:18.047Z,22.41
2022-08-28T01:23:42.535Z,22.40
2022-08-28T01:26:47.926Z,22.35
2022-08-28T01:29:56.143Z,22.40
2022-08-28T01:33:03.684Z,22.38
2022-08-28T01:36:10.547Z,22.38
2022-08-28T01:39:18.232Z,22.41
2022-08-28T01:42:21.665Z,22.38
2022-08-28T01:45:28.734Z,22.30
2022-08-28T01:48:33.158Z,22.26
2022-08-28T01:51:38.093Z,22.18
2022-08-28T01:54:42.472Z,22.12
2022-08-28T01:57:50.742Z,22.09
2022-08-28T02:00:55.801Z,22.06
2022-08-28T02:03:58.820Z,21.98
2022-08-28T02:07:01.570Z,21.87
2022-08-28T02:10:06.400Z,21.88
2022-08-28T02:13:15.076Z,21.75
2022-08-28T02:16:18.947Z,21.69
2022-08-28T02:19:21.565Z,21.70
2022-08-28T02:22:26.901Z,21.63
2022-08-28T02:25:29.910Z,21.65
2022-08-28T02:28:32.878Z,21.58
2022-08-28T02:31:38.154Z,21.55
2022-08-28T02:34:45.732Z,21.56
2022-08-28T02:37:49.466Z,21.53
2022-08-28T02:40:52.944Z,21.48
2022-08-28T02:43:55.867Z,21.48
2022-08-28T02:47:00.683Z,21.51
2022-08-28T02:50:03.869Z,21.51
2022-08-28T02:53:06.808Z,21.49
2022-08-28T02:56:10.294Z,21.44
2022-08-28T02:59:13.530Z,21.40
2022-08-28T03:02:16.922Z,21.43
2022-08-28T03:05:24.180Z,21.45
2022-08-28T03:08:27.485Z,21.36
2022-08-28T03:11:31.105Z,21.31
2022-08-28T03:14:36.506Z,21.30
2022-08-28T03:17:42.414Z,21.24
2022-08-28T03:20:46.779Z,21.13
2022-08-28T03:23:51.971Z,21.14
2022-08-28T03:26:54.988Z,21.13
2022-08-28T03:29:59.522Z,21.17
2022-08-28T03:33:01.962Z,21.12
2022-08-28T03:36:04.974Z,21.11
2022-08-28T03:39:10.364Z,21.06
2022-08-28T03:42:13.119Z,21.03
2022-08-28T03:45:17.049Z,20.98
2022-08-28T03:48:20.295Z,20.92
2022-08-28T03:51:30.334Z,20.90
2022-08-28T03:54:36.699Z,20.88
2022-08-28T03:57:41.949Z,20.85
2022-08-28T04:00:46.892Z,20.84
2022-08-28T04:03:50.428Z,20.83
2022-08-28T04:06:56.472Z,20.81
2022-08-28T04:10:01.971Z,20.81
2022-08-28T04:13:04.587Z,20.80
2022-08-28T04:16:12.911Z,20.76
2022-08-28T04:19:17.334Z,20.72
2022-08-28T04:22:23.749Z,20.72
2022-08-28T04:25:27.013Z,20.72
2022-08-28T04:28:32.423Z,20.74
2022-08-28T04:31:36.210Z,20.76
2022-08-28T04:34:40.112Z,20.75
2022-08-28T04:38:05.645Z,20.74
2022-08-28T04:41:11.895Z,20.78
2022-08-28T04:44:14.700Z,20.75
2022-08-28T04:47:17.794Z,20.81
2022-08-28T04:50:22.647Z,20.78
2022-08-28T04:53:25.440Z,20.85
2022-08-28T04:56:27.953Z,20.90
2022-08-28T04:59:30.825Z,20.93
2022-08-28T05:02:35.553Z,21.00
2022-08-28T05:05:50.316Z,21.13
2022-08-28T05:08:54.197Z,21.23
2022-08-28T05:12:01.130Z,21.29
2022-08-28T05:15:06.542Z,21.39
2022-08-28T05:18:14.431Z,21.45
2022-08-28T05:21:21.692Z,21.57
2022-08-28T05:24:25.514Z,21.62
2022-08-28T05:27:30.842Z,21.69
2022-08-28T05:30:34.194Z,21.76
2022-08-28T05:33:37.217Z,21.85
2022-08-28T05:36:40.122Z,21.94
2022-08-28T05:39:45.524Z,22.02
2022-08-28T05:42:50.380Z,22.08
2022-08-28T05:46:00.243Z,22.19
2022-08-28T05:49:09.106Z,22.20
2022-08-28T05:52:16.563Z,22.33
2022-08-28T05:55:22.946Z,22.42
2022-08-28T05:58:29.703Z,22.45
2022-08-28T06:01:38.886Z,22.57
2022-08-28T06:04:44.460Z,22.70
2022-08-28T06:07:47.225Z,22.70
2022-08-28T06:10:52.660Z,22.80
2022-08-28T06:13:55.909Z,22.91
2022-08-28T06:17:03.050Z,23.08
2022-08-28T06:20:08.470Z,23.24
2022-08-28T06:23:15.215Z,23.36
2022-08-28T06:26:25.231Z,23.50
2022-08-28T06:29:28.332Z,23.63
2022-08-28T06:32:30.870Z,23.74
2022-08-28T06:35:34.772Z,23.88
2022-08-28T06:38:46.557Z,23.97
2022-08-28T06:41:49.644Z,24.18
2022-08-28T06:44:54.605Z,24.40
2022-08-28T06:47:58.579Z,24.59
2022-08-28T06:51:11.205Z,24.83
2022-08-28T06:54:21.171Z,25.08
2022-08-28T06:57:32.052Z,25.19
2022-08-28T07:00:37.702Z,25.32
2022-08-28T07:03:44.213Z,25.29
2022-08-28T07:06:54.784Z,25.43
2022-08-28T07:09:57.995Z,25.78
2022-08-28T07:13:05.578Z,25.77
2022-08-28T07:16:15.376Z,26.01
2022-08-28T07:19:18.518Z,26.26
2022-08-28T07:22:26.593Z,26.62
2022-08-28T07:25:30.905Z,27.08
2022-08-28T07:28:35.813Z,27.18
2022-08-28T07:31:45.347Z,27.68
2022-08-28T07:34:49.329Z,28.27
2022-08-28T07:37:55.031Z,28.28
2022-08-28T07:41:19.406Z,28.71
2022-08-28T07:44:43.126Z,28.73
2022-08-28T07:47:49.964Z,28.77
2022-08-28T07:51:06.339Z,29.22
2022-08-28T07:54:14.724Z,29.46
2022-08-28T07:57:36.784Z,29.76
2022-08-28T08:01:06.263Z,29.43
2022-08-28T08:04:33.759Z,29.37
2022-08-28T08:07:50.433Z,28.21
2022-08-28T08:11:16.563Z,28.21
2022-08-28T08:14:24.630Z,28.31
2022-08-28T08:17:35.920Z,28.52
2022-08-28T08:20:40.214Z,28.69
2022-08-28T08:23:43.742Z,29.73
2022-08-28T08:26:59.445Z,29.84
2022-08-28T08:30:23.180Z,29.94
2022-08-28T08:33:29.823Z,30.32
2022-08-28T08:36:55.967Z,31.32
2022-08-28T08:40:34.355Z,31.48
2022-08-28T08:44:01.228Z,32.43
2022-08-28T08:47:17.179Z,32.17
2022-08-28T08:50:36.061Z,33.35
2022-08-28T08:54:01.503Z,33.91
2022-08-28T08:57:13.189Z,33.77
2022-08-28T09:00:18.721Z,33.18
2022-08-28T09:03:27.749Z,33.06
2022-08-28T09:06:44.171Z,33.53
2022-08-28T09:09:59.520Z,34.92
2022-08-28T09:13:23.961Z,34.16
2022-08-28T09:16:38.267Z,35.42
2022-08-28T09:19:43.637Z,35.06
2022-08-28T09:22:50.508Z,35.64
2022-08-28T09:26:02.382Z,36.19
2022-08-28T09:29:30.582Z,36.16
2022-08-28T12:24:22.374Z,36.78
2022-08-28T12:27:45.721Z,37.11
2022-08-28T12:31:13.281Z,37.34
2022-08-28T12:45:59.266Z,35.03
2022-08-28T12:49:41.297Z,34.51
2022-08-28T12:53:36.722Z,34.60
2022-08-28T12:57:17.898Z,33.69
2022-08-28T13:01:00.860Z,33.11
2022-08-28T13:04:54.290Z,32.54
2022-08-28T13:08:13.500Z,32.28
2022-08-28T13:11:21.704Z,32.42
2022-08-28T13:14:46.256Z,32.52
2022-08-28T13:18:03.550Z,32.65
2022-08-28T13:21:33.795Z,32.41
2022-08-28T13:24:59.834Z,32.25
2022-08-28T13:28:18.114Z,32.10
2022-08-28T13:31:43.116Z,32.43
2022-08-28T13:35:36.027Z,31.98
2022-08-28T13:38:41.977Z,32.24
2022-08-28T13:42:07.485Z,32.31
2022-08-28T13:45:11.913Z,31.91
2022-08-28T13:48:19.043Z,31.23
2022-08-28T13:51:39.431Z,31.70
2022-08-28T13:54:45.825Z,31.76
2022-08-28T13:57:52.287Z,31.71
2022-08-28T14:01:07.162Z,31.79
2022-08-28T14:04:11.636Z,31.12
2022-08-28T14:07:17.128Z,31.13
2022-08-28T14:10:34.385Z,31.35
2022-08-28T14:13:37.840Z,31.40
2022-08-28T14:16:46.067Z,31.23
2022-08-28T14:19:50.349Z,30.79
2022-08-28T14:23:07.479Z,31.01
2022-08-28T14:26:35.161Z,31.09
2022-08-28T14:30:22.251Z,31.11
2022-08-28T14:37:28.579Z,31.02
2022-08-28T14:40:42.973Z,31.09
2022-08-28T14:43:48.236Z,31.00
2022-08-28T14:46:57.465Z,30.93
2022-08-28T14:50:17.242Z,31.07
2022-08-28T14:53:25.326Z,31.11
2022-08-28T14:56:44.760Z,31.14
2022-08-28T14:59:49.456Z,31.02
2022-08-28T15:02:53.319Z,30.70
2022-08-28T15:06:25.725Z,30.36
2022-08-28T15:09:31.519Z,30.55
2022-08-28T15:12:49.434Z,30.49
2022-08-28T15:16:01.747Z,30.57
2022-08-28T15:23:19.631Z,30.65
2022-08-28T15:27:13.534Z,30.64
2022-08-28T15:30:53.737Z,30.23
2022-08-28T15:42:19.018Z,29.88
2022-08-28T15:45:37.114Z,29.74
2022-08-28T15:56:44.889Z,29.65
2022-08-28T16:03:56.917Z,29.22
2022-08-28T16:07:13.403Z,29.03
2022-08-28T16:10:52.813Z,28.88
2022-08-28T16:14:21.989Z,28.85
2022-08-28T16:17:34.950Z,28.67
2022-08-28T16:20:52.781Z,28.58
2022-08-28T16:24:20.054Z,28.37
2022-08-28T16:27:59.058Z,28.25
2022-08-28T16:31:29.753Z,28.08
2022-08-28T16:34:37.180Z,27.99
2022-08-28T16:38:09.912Z,27.86
2022-08-28T16:41:52.026Z,27.77
2022-08-28T16:45:34.138Z,27.65
2022-08-28T16:48:37.634Z,27.55
2022-08-28T16:55:43.854Z,27.44
2022-08-28T16:59:17.833Z,27.36
2022-08-28T17:02:44.596Z,27.23
2022-08-28T17:06:29.574Z,27.15
2022-08-28T17:09:39.767Z,27.06
2022-08-28T17:12:45.241Z,27.02
2022-08-28T17:15:49.886Z,26.94
2022-08-28T17:18:55.276Z,26.85
2022-08-28T17:22:33.438Z,26.74
2022-08-28T17:25:49.327Z,26.65
2022-08-28T17:28:58.993Z,26.61
2022-08-28T17:36:33.472Z,26.43
2022-08-28T17:39:48.681Z,26.34
2022-08-28T17:42:53.707Z,26.25
2022-08-28T17:46:02.445Z,26.17
2022-08-28T17:49:28.196Z,26.12
2022-08-28T17:52:53.332Z,26.09
2022-08-28T17:56:06.282Z,26.00
2022-08-28T17:59:25.942Z,25.96
2022-08-28T18:03:00.939Z,25.97
2022-08-28T18:06:32.892Z,25.95
2022-08-28T18:09:51.266Z,25.96
2022-08-28T18:13:27.198Z,26.02
2022-08-28T18:17:00.004Z,25.99
2022-08-28T18:20:17.490Z,26.02
2022-08-28T18:23:30.365Z,25.95
2022-08-28T18:27:07.615Z,25.95
2022-08-28T18:30:54.847Z,25.93
2022-08-28T18:34:21.975Z,25.88
2022-08-28T18:37:57.959Z,25.92
2022-08-28T18:41:20.979Z,25.90
2022-08-28T18:44:51.611Z,25.84
2022-08-28T18:48:32.102Z,25.77
2022-08-28T18:52:04.344Z,25.77
2022-08-28T18:55:38.239Z,25.74
2022-08-28T19:03:00.571Z,25.72
2022-08-28T19:06:31.889Z,25.72
2022-08-28T19:10:11.431Z,25.68
2022-08-28T19:13:37.332Z,25.70
2022-08-28T19:16:55.808Z,25.66
2022-08-28T19:20:17.476Z,25.63
2022-08-28T19:23:55.345Z,25.59
2022-08-28T19:27:14.586Z,25.48
2022-08-28T19:30:24.241Z,25.41
2022-08-28T19:33:53.960Z,25.42
2022-08-28T19:37:22.000Z,25.34
2022-08-28T19:40:39.001Z,25.24
2022-08-28T19:44:03.105Z,25.26
2022-08-28T19:47:50.728Z,25.18
2022-08-28T20:38:55.464Z,24.06
2022-08-28T20:42:01.089Z,24.01
2022-08-28T20:45:20.857Z,23.98
2022-08-28T20:48:45.359Z,23.86
2022-08-28T20:55:48.491Z,23.63
2022-08-28T21:07:07.817Z,23.22
2022-08-28T21:10:40.581Z,23.19
2022-08-28T21:14:14.799Z,23.06
2022-08-28T21:18:00.679Z,22.95
2022-08-28T21:40:21.456Z,22.31
2022-08-28T21:44:01.563Z,22.24
2022-08-28T21:47:26.457Z,22.17
2022-08-28T21:50:53.956Z,22.13
2022-08-28T21:54:25.177Z,22.01
2022-08-28T21:57:59.521Z,21.92
2022-08-28T22:08:55.897Z,21.75
2022-08-28T22:12:35.185Z,21.68
2022-08-28T22:16:10.577Z,21.58
2022-08-28T22:19:34.374Z,21.55
2022-08-28T22:23:08.765Z,21.55
2022-08-28T22:33:57.205Z,21.39
2022-08-28T22:37:39.968Z,21.38
2022-08-28T22:40:46.493Z,21.32
2022-08-28T22:43:52.432Z,21.25
2022-08-28T22:47:01.554Z,21.23
2022-08-28T22:50:23.887Z,21.20
2022-08-28T22:53:47.221Z,21.16
2022-08-28T22:57:04.513Z,21.19
2022-08-28T23:00:17.004Z,21.28
2022-08-28T23:03:33.260Z,21.44
2022-08-28T23:06:50.281Z,21.58
2022-08-28T23:10:18.342Z,21.68
2022-08-28T23:13:49.538Z,21.73
2022-08-28T23:17:10.182Z,21.74
2022-08-28T23:20:21.393Z,21.73
2022-08-28T23:23:44.540Z,21.78
2022-08-28T23:27:19.449Z,21.73
2022-08-28T23:30:29.797Z,21.69
2022-08-28T23:33:57.937Z,21.67
2022-08-28T23:37:12.372Z,21.58
2022-08-28T23:40:24.261Z,21.52
2022-08-28T23:43:53.449Z,21.50
2022-08-28T23:47:20.178Z,21.50
2022-08-28T23:50:51.909Z,21.47
2022-08-28T23:54:10.414Z,21.41
2022-08-28T23:57:40.371Z,21.32
